Time;durP1;ratioP1;P1;durP2;ratioP2;P2;SDS_P1;SDS_P2;PMS_P1;PMS_P2;Temp;Humidity;BMP_temperature;BMP_pressure;BME280_temperature;BME280_humidity;BME280_pressure;Samples;Min_cycle;Max_cycle;Signal;HPM_P1;HPM_P2
2023/09/11 00:00:13;;;;;;;9.15;7.65;;;;;;;;;;10373124;28;20415;-84
2023/09/11 00:05:15;;;;;;;9.55;7.28;;;;;;;;;;10366983;28;20523;-85
2023/09/11 00:10:19;;;;;;;8.03;7.23;;;;;;;;;;10372354;28;20739;-85
2023/09/11 00:15:21;;;;;;;8.80;7.35;;;;;;;;;;10368622;28;20407;-84
2023/09/11 00:20:23;;;;;;;9.07;7.18;;;;;;;;;;10369400;28;20455;-84
2023/09/11 00:25:28;;;;;;;9.20;7.67;;;;;;;;;;10371353;28;20891;-85
2023/09/11 00:30:31;;;;;;;9.47;7.53;;;;;;;;;;10362309;28;20407;-84
2023/09/11 00:35:33;;;;;;;9.90;7.80;;;;;;;;;;10367555;28;20545;-84
2023/09/11 00:40:36;;;;;;;9.35;7.93;;;;;;;;;;10373336;28;21012;-84
2023/09/11 00:45:39;;;;;;;10.23;7.88;;;;;;;;;;10366059;28;20851;-84
2023/09/11 00:50:44;;;;;;;10.73;8.00;;;;;;;;;;10350546;28;20932;-84
2023/09/11 00:55:47;;;;;;;10.05;7.78;;;;;;;;;;10364719;28;20446;-85
2023/09/11 01:00:50;;;;;;;9.95;8.25;;;;;;;;;;10379816;28;20441;-84
2023/09/11 01:05:55;;;;;;;9.60;7.97;;;;;;;;;;10381421;28;20529;-84
2023/09/11 01:10:58;;;;;;;9.57;8.30;;;;;;;;;;10368474;28;20436;-85
2023/09/11 01:16:06;;;;;;;10.35;8.25;;;;;;;;;;10380513;28;20435;-85
2023/09/11 01:21:37;;;;;;;10.87;8.57;;;;;;;;;;10385196;28;20431;-84
2023/09/11 01:27:03;;;;;;;9.52;7.78;;;;;;;;;;10376317;28;20949;-84
2023/09/11 01:32:08;;;;;;;9.90;8.20;;;;;;;;;;10384776;28;20478;-84
2023/09/11 01:37:10;;;;;;;9.70;8.00;;;;;;;;;;10382436;28;21054;-84
2023/09/11 01:42:20;;;;;;;10.82;8.13;;;;;;;;;;10377336;28;20421;-83
2023/09/11 01:47:24;;;;;;;13.17;8.60;;;;;;;;;;10388596;28;20805;-84
2023/09/11 01:52:28;;;;;;;10.38;8.85;;;;;;;;;;10382624;28;20409;-84
2023/09/11 01:57:30;;;;;;;9.48;8.35;;;;;;;;;;10377032;28;20455;-85
2023/09/11 02:02:34;;;;;;;10.33;9.23;;;;;;;;;;10383145;28;20485;-84
2023/09/11 02:07:38;;;;;;;10.27;8.48;;;;;;;;;;10381858;28;20431;-84
2023/09/11 02:12:41;;;;;;;9.38;8.18;;;;;;;;;;10380460;28;20430;-84
2023/09/11 02:17:44;;;;;;;10.25;8.52;;;;;;;;;;10382352;28;20407;-84
2023/09/11 02:22:47;;;;;;;10.43;8.68;;;;;;;;;;10382799;28;20491;-83
2023/09/11 02:27:49;;;;;;;11.82;8.35;;;;;;;;;;10373264;28;20496;-85
2023/09/11 02:32:53;;;;;;;11.10;8.60;;;;;;;;;;10382816;28;20415;-84
2023/09/11 02:37:55;;;;;;;10.90;8.83;;;;;;;;;;10391622;28;20415;-84
2023/09/11 02:42:57;;;;;;;9.27;7.68;;;;;;;;;;10387024;28;20479;-85
2023/09/11 02:48:01;;;;;;;11.32;8.10;;;;;;;;;;10391202;28;20421;-84
2023/09/11 02:53:04;;;;;;;10.30;7.50;;;;;;;;;;10380941;28;20403;-84
2023/09/11 02:58:06;;;;;;;8.15;7.35;;;;;;;;;;10376283;28;20490;-84
2023/09/11 03:03:10;;;;;;;8.47;7.63;;;;;;;;;;10381534;28;20465;-84
2023/09/11 03:08:12;;;;;;;10.13;7.53;;;;;;;;;;10385863;28;20419;-84
2023/09/11 03:13:15;;;;;;;9.57;7.82;;;;;;;;;;10383205;28;20472;-84
2023/09/11 03:18:18;;;;;;;8.27;7.40;;;;;;;;;;10389754;28;20468;-84
2023/09/11 03:23:21;;;;;;;10.98;7.43;;;;;;;;;;10381253;28;20493;-84
2023/09/11 03:28:26;;;;;;;9.70;7.88;;;;;;;;;;10382492;28;20413;-84
2023/09/11 03:33:30;;;;;;;10.25;7.82;;;;;;;;;;10378795;28;20471;-84
2023/09/11 03:38:33;;;;;;;8.45;7.30;;;;;;;;;;10380713;28;20413;-84
2023/09/11 03:43:35;;;;;;;9.10;7.60;;;;;;;;;;10376141;28;21027;-83
2023/09/11 03:48:39;;;;;;;8.82;7.78;;;;;;;;;;10376663;28;20416;-84
2023/09/11 03:53:44;;;;;;;16.80;7.95;;;;;;;;;;10378491;28;20442;-84
2023/09/11 03:58:46;;;;;;;9.02;7.35;;;;;;;;;;10379363;28;20415;-85
2023/09/11 04:03:50;;;;;;;8.85;7.40;;;;;;;;;;10377913;28;20503;-84
2023/09/11 04:08:52;;;;;;;9.68;7.78;;;;;;;;;;10373126;28;20777;-85
2023/09/11 04:13:54;;;;;;;11.43;7.73;;;;;;;;;;10376476;28;20478;-84
2023/09/11 04:18:58;;;;;;;11.45;7.78;;;;;;;;;;10376956;28;20413;-84
2023/09/11 04:24:00;;;;;;;8.50;7.20;;;;;;;;;;10378334;28;20459;-84
2023/09/11 04:29:03;;;;;;;8.57;7.63;;;;;;;;;;10377600;28;20966;-84
2023/09/11 04:34:07;;;;;;;10.70;8.57;;;;;;;;;;10373348;28;20835;-84
2023/09/11 04:39:10;;;;;;;8.82;7.57;;;;;;;;;;10384709;28;20823;-84
2023/09/11 04:44:14;;;;;;;8.83;7.63;;;;;;;;;;10383594;28;20525;-84
2023/09/11 04:49:17;;;;;;;9.32;7.32;;;;;;;;;;10386554;28;20415;-85
2023/09/11 04:54:20;;;;;;;11.27;7.60;;;;;;;;;;10377216;28;20515;-84
2023/09/11 04:59:22;;;;;;;10.77;8.13;;;;;;;;;;10366624;28;20476;-84
2023/09/11 05:04:26;;;;;;;11.88;7.70;;;;;;;;;;10375421;28;20923;-84
2023/09/11 05:09:28;;;;;;;9.68;7.93;;;;;;;;;;10373997;28;20411;-84
2023/09/11 05:14:30;;;;;;;12.45;8.18;;;;;;;;;;10374049;28;20934;-84
2023/09/11 05:19:34;;;;;;;11.40;8.13;;;;;;;;;;10374393;28;20465;-83
2023/09/11 05:24:37;;;;;;;12.00;8.27;;;;;;;;;;10356813;28;20458;-84
2023/09/11 05:29:39;;;;;;;10.50;8.30;;;;;;;;;;10356150;28;20913;-85
2023/09/11 05:34:43;;;;;;;13.57;8.70;;;;;;;;;;10372501;28;20405;-86
2023/09/11 05:39:45;;;;;;;11.07;8.60;;;;;;;;;;10380692;28;20890;-85
2023/09/11 05:44:48;;;;;;;9.93;8.65;;;;;;;;;;10377927;28;20539;-87
2023/09/11 05:49:52;;;;;;;11.45;8.25;;;;;;;;;;10383153;28;20886;-86
2023/09/11 05:54:54;;;;;;;10.80;8.65;;;;;;;;;;10389408;28;20421;-86
2023/09/11 05:59:57;;;;;;;12.63;8.93;;;;;;;;;;10382611;28;20409;-86
2023/09/11 06:05:00;;;;;;;12.02;8.43;;;;;;;;;;10378791;28;20513;-86
2023/09/11 06:10:04;;;;;;;13.65;8.93;;;;;;;;;;10378166;28;20465;-86
2023/09/11 06:15:07;;;;;;;14.13;8.55;;;;;;;;;;10375596;28;20413;-86
2023/09/11 06:20:13;;;;;;;10.98;7.90;;;;;;;;;;10367628;28;20603;-86
2023/09/11 06:25:16;;;;;;;11.20;7.78;;;;;;;;;;10368957;28;20452;-87
2023/09/11 06:30:18;;;;;;;14.02;8.32;;;;;;;;;;10377783;28;20483;-87
2023/09/11 06:35:22;;;;;;;15.70;10.05;;;;;;;;;;10372487;28;20458;-86
2023/09/11 06:40:24;;;;;;;13.27;7.33;;;;;;;;;;10375044;28;20454;-85
2023/09/11 06:45:26;;;;;;;10.60;6.22;;;;;;;;;;10379845;28;20419;-85
2023/09/11 06:50:30;;;;;;;6.50;5.45;;;;;;;;;;10373071;28;20490;-86
2023/09/11 06:55:32;;;;;;;13.15;8.27;;;;;;;;;;10366950;28;20521;-86
2023/09/11 07:00:35;;;;;;;11.30;7.50;;;;;;;;;;10364611;28;20859;-86
2023/09/11 07:05:39;;;;;;;10.70;7.05;;;;;;;;;;10361361;28;20896;-87
2023/09/11 07:10:41;;;;;;;11.30;6.30;;;;;;;;;;10370149;28;21055;-87
2023/09/11 07:15:43;;;;;;;7.68;6.45;;;;;;;;;;10373441;28;20452;-87
2023/09/11 07:20:47;;;;;;;7.90;6.15;;;;;;;;;;10377143;28;20447;-87
2023/09/11 07:25:51;;;;;;;8.02;6.28;;;;;;;;;;10374911;28;20453;-86
2023/09/11 07:30:53;;;;;;;8.57;6.27;;;;;;;;;;10378352;28;20540;-86
2023/09/11 07:35:57;;;;;;;11.25;6.93;;;;;;;;;;10379912;28;20447;-85
2023/09/11 07:41:00;;;;;;;8.60;5.90;;;;;;;;;;10364806;28;20449;-86
2023/09/11 07:46:02;;;;;;;10.82;6.40;;;;;;;;;;10372664;28;20460;-86
2023/09/11 07:51:06;;;;;;;10.30;5.75;;;;;;;;;;10369163;28;20423;-86
2023/09/11 07:56:10;;;;;;;7.25;6.05;;;;;;;;;;10384737;28;20883;-86
2023/09/11 08:01:12;;;;;;;9.40;6.18;;;;;;;;;;10379133;28;20427;-87
2023/09/11 08:06:16;;;;;;;10.23;7.47;;;;;;;;;;10377946;28;20427;-87
2023/09/11 08:11:21;;;;;;;13.47;6.60;;;;;;;;;;10376079;28;20481;-86
2023/09/11 08:16:24;;;;;;;8.93;6.43;;;;;;;;;;10365107;28;20570;-86
2023/09/11 08:21:27;;;;;;;8.40;6.60;;;;;;;;;;10367315;28;20458;-87
2023/09/11 08:26:30;;;;;;;9.23;6.57;;;;;;;;;;10376699;28;20454;-86
2023/09/11 08:31:32;;;;;;;7.32;6.03;;;;;;;;;;10374150;28;20640;-87
2023/09/11 08:36:36;;;;;;;9.90;6.57;;;;;;;;;;10374926;28;20507;-86
2023/09/11 08:41:41;;;;;;;8.70;6.25;;;;;;;;;;10369186;28;20897;-87
2023/09/11 08:46:46;;;;;;;9.00;6.50;;;;;;;;;;10371679;28;20458;-86
2023/09/11 08:51:54;;;;;;;10.15;6.25;;;;;;;;;;10363598;28;20455;-86
2023/09/11 08:56:57;;;;;;;7.90;6.23;;;;;;;;;;10367490;28;20450;-86
2023/09/11 09:02:00;;;;;;;8.60;6.88;;;;;;;;;;10370343;28;20478;-86
2023/09/11 09:07:04;;;;;;;9.68;6.05;;;;;;;;;;10370189;28;21078;-86
2023/09/11 09:12:07;;;;;;;8.25;5.70;;;;;;;;;;10371537;28;20459;-86
2023/09/11 09:17:10;;;;;;;7.65;6.50;;;;;;;;;;10369701;28;20413;-86
2023/09/11 09:22:14;;;;;;;6.15;5.55;;;;;;;;;;10373734;28;21001;-86
2023/09/11 09:27:16;;;;;;;8.77;6.20;;;;;;;;;;10379808;28;20497;-85
2023/09/11 09:32:18;;;;;;;7.88;6.20;;;;;;;;;;10364172;28;20520;-86
2023/09/11 09:37:22;;;;;;;7.50;6.10;;;;;;;;;;10375465;28;20447;-86
2023/09/11 09:42:25;;;;;;;8.48;6.47;;;;;;;;;;10368115;28;21028;-84
2023/09/11 09:47:27;;;;;;;7.15;6.18;;;;;;;;;;10367388;28;20494;-86
2023/09/11 09:52:31;;;;;;;7.18;6.47;;;;;;;;;;10371605;28;21070;-86
2023/09/11 09:57:34;;;;;;;8.23;6.13;;;;;;;;;;10366390;28;20446;-86
2023/09/11 10:02:37;;;;;;;7.40;5.75;;;;;;;;;;10370334;28;20425;-86
2023/09/11 10:07:43;;;;;;;6.47;5.72;;;;;;;;;;10379136;28;20461;-86
2023/09/11 10:12:45;;;;;;;8.93;6.00;;;;;;;;;;10371423;28;21700;-86
2023/09/11 10:17:48;;;;;;;7.37;5.47;;;;;;;;;;10367802;28;20439;-86
2023/09/11 10:22:54;;;;;;;7.57;6.03;;;;;;;;;;10371218;28;20407;-86
2023/09/11 10:27:59;;;;;;;7.50;5.57;;;;;;;;;;10372020;28;20457;-87
2023/09/11 10:33:05;;;;;;;7.03;5.80;;;;;;;;;;10369811;28;20838;-87
2023/09/11 10:38:10;;;;;;;7.35;5.30;;;;;;;;;;10369594;28;20516;-86
2023/09/11 10:43:13;;;;;;;6.47;5.20;;;;;;;;;;10358188;28;20491;-86
2023/09/11 10:48:29;;;;;;;7.05;5.18;;;;;;;;;;10363186;28;20578;-86
2023/09/11 10:53:33;;;;;;;7.88;5.80;;;;;;;;;;10368716;28;20444;-86
2023/09/11 10:58:36;;;;;;;6.70;5.57;;;;;;;;;;10366191;28;20451;-86
2023/09/11 11:03:38;;;;;;;6.60;5.25;;;;;;;;;;10362368;28;20907;-86
2023/09/11 11:08:42;;;;;;;6.05;5.18;;;;;;;;;;10362696;28;20462;-87
2023/09/11 11:14:11;;;;;;;5.97;4.85;;;;;;;;;;10362819;28;20519;-86
2023/09/11 11:19:25;;;;;;;8.65;5.70;;;;;;;;;;10361207;28;20447;-86
2023/09/11 11:24:31;;;;;;;6.00;5.40;;;;;;;;;;10367959;28;20485;-86
2023/09/11 11:29:33;;;;;;;6.38;5.20;;;;;;;;;;10358372;28;20458;-87
2023/09/11 11:34:37;;;;;;;8.52;5.68;;;;;;;;;;10355340;28;20515;-87
2023/09/11 11:39:41;;;;;;;6.32;5.18;;;;;;;;;;10359961;28;20433;-87
2023/09/11 11:44:44;;;;;;;9.13;5.38;;;;;;;;;;10365469;28;20454;-87
2023/09/11 11:49:49;;;;;;;6.97;4.97;;;;;;;;;;10362881;28;20549;-86
2023/09/11 11:54:53;;;;;;;6.10;5.30;;;;;;;;;;10359352;28;21122;-86
2023/09/11 11:59:55;;;;;;;6.03;4.80;;;;;;;;;;10384084;28;20469;-87
2023/09/11 12:04:57;;;;;;;6.23;5.30;;;;;;;;;;10367081;28;20458;-86
2023/09/11 12:10:01;;;;;;;5.67;4.70;;;;;;;;;;10350307;28;20542;-87
2023/09/11 12:15:06;;;;;;;5.80;5.20;;;;;;;;;;10364273;28;20431;-86
2023/09/11 12:20:12;;;;;;;5.75;4.97;;;;;;;;;;10371488;28;20469;-86
2023/09/11 12:25:17;;;;;;;7.07;5.03;;;;;;;;;;10369841;28;20946;-86
2023/09/11 12:30:20;;;;;;;5.93;5.20;;;;;;;;;;10369766;28;20462;-86
2023/09/11 12:35:33;;;;;;;7.25;5.40;;;;;;;;;;10372034;28;20464;-86
2023/09/11 12:40:36;;;;;;;5.27;4.70;;;;;;;;;;10367122;28;20509;-87
2023/09/11 12:45:40;;;;;;;6.40;5.38;;;;;;;;;;10361508;28;20446;-87
2023/09/11 12:50:43;;;;;;;5.97;5.00;;;;;;;;;;10367820;28;20462;-86
2023/09/11 12:55:48;;;;;;;8.35;5.10;;;;;;;;;;10383598;28;20430;-86
2023/09/11 13:00:50;;;;;;;5.30;4.80;;;;;;;;;;10370589;28;20402;-87
2023/09/11 13:05:53;;;;;;;6.03;4.82;;;;;;;;;;10385307;28;20489;-86
2023/09/11 13:10:56;;;;;;;7.50;4.75;;;;;;;;;;10364348;28;20431;-86
2023/09/11 13:15:59;;;;;;;7.30;5.13;;;;;;;;;;10369277;28;20405;-88
2023/09/11 13:21:01;;;;;;;11.85;5.00;;;;;;;;;;10364842;28;20527;-87
2023/09/11 13:26:05;;;;;;;8.55;5.10;;;;;;;;;;10367628;28;20474;-87
2023/09/11 13:31:08;;;;;;;5.35;4.55;;;;;;;;;;10367885;28;20460;-87
2023/09/11 13:36:11;;;;;;;6.40;4.55;;;;;;;;;;10359372;28;20443;-87
2023/09/11 13:41:14;;;;;;;7.25;4.53;;;;;;;;;;10361934;28;20399;-86
2023/09/11 13:46:17;;;;;;;5.70;5.10;;;;;;;;;;10366688;28;20487;-85
2023/09/11 13:51:19;;;;;;;7.45;4.88;;;;;;;;;;10371821;28;20506;-86
2023/09/11 13:56:23;;;;;;;10.35;4.72;;;;;;;;;;10365430;28;20412;-87
2023/09/11 14:01:25;;;;;;;5.75;4.60;;;;;;;;;;10352592;28;20447;-87
2023/09/11 14:06:28;;;;;;;6.68;4.75;;;;;;;;;;10369519;28;20897;-87
2023/09/11 14:11:31;;;;;;;5.13;4.63;;;;;;;;;;10393041;28;20405;-86
2023/09/11 14:16:34;;;;;;;6.50;4.50;;;;;;;;;;10371163;28;20413;-87
2023/09/11 14:21:36;;;;;;;5.65;4.65;;;;;;;;;;10377638;28;20491;-84
2023/09/11 14:26:40;;;;;;;4.75;4.35;;;;;;;;;;10380054;28;20410;-87
2023/09/11 14:31:42;;;;;;;4.70;4.30;;;;;;;;;;10370643;28;20410;-87
2023/09/11 14:36:44;;;;;;;4.53;4.13;;;;;;;;;;10375213;28;20411;-86
2023/09/11 14:41:48;;;;;;;5.90;5.25;;;;;;;;;;10384193;28;20444;-87
2023/09/11 14:46:51;;;;;;;4.77;4.13;;;;;;;;;;10382372;28;20843;-87
2023/09/11 14:51:53;;;;;;;5.90;4.35;;;;;;;;;;10371305;28;20451;-86
2023/09/11 14:56:57;;;;;;;5.07;4.57;;;;;;;;;;10366591;28;20462;-87
2023/09/11 15:01:59;;;;;;;6.10;5.03;;;;;;;;;;10359989;28;20836;-87
2023/09/11 15:07:01;;;;;;;5.57;4.57;;;;;;;;;;10356830;28;20532;-87
2023/09/11 15:12:06;;;;;;;6.60;4.65;;;;;;;;;;10378757;28;20409;-87
2023/09/11 15:17:09;;;;;;;7.13;4.75;;;;;;;;;;10378478;28;20451;-87
2023/09/11 15:22:11;;;;;;;4.80;4.33;;;;;;;;;;10364033;28;20505;-87
2023/09/11 15:27:15;;;;;;;5.47;4.45;;;;;;;;;;10371821;28;20461;-87
2023/09/11 15:32:19;;;;;;;5.85;4.43;;;;;;;;;;10362278;28;20994;-87
2023/09/11 15:37:21;;;;;;;6.85;4.72;;;;;;;;;;10355603;28;20690;-87
2023/09/11 15:42:25;;;;;;;5.33;4.83;;;;;;;;;;10361784;28;20439;-87
2023/09/11 15:47:27;;;;;;;5.60;4.87;;;;;;;;;;10351589;28;20461;-86
2023/09/11 15:52:30;;;;;;;6.03;4.97;;;;;;;;;;10339971;28;20454;-87
2023/09/11 15:57:33;;;;;;;5.30;4.80;;;;;;;;;;10355393;28;20450;-87
2023/09/11 16:02:36;;;;;;;5.53;5.00;;;;;;;;;;10352380;28;20455;-86
2023/09/11 16:07:38;;;;;;;6.05;4.78;;;;;;;;;;10353969;28;20514;-86
2023/09/11 16:12:42;;;;;;;6.63;5.28;;;;;;;;;;10356661;28;20504;-86
2023/09/11 16:17:45;;;;;;;10.90;5.50;;;;;;;;;;10358546;28;20440;-86
2023/09/11 16:22:47;;;;;;;5.88;4.90;;;;;;;;;;10358481;28;20502;-86
2023/09/11 16:27:51;;;;;;;5.63;5.13;;;;;;;;;;10356628;28;20454;-86
2023/09/11 16:32:55;;;;;;;6.22;4.90;;;;;;;;;;10353077;28;20472;-86
2023/09/11 16:37:57;;;;;;;6.70;5.20;;;;;;;;;;10360976;28;20452;-87
2023/09/11 16:43:01;;;;;;;5.50;5.00;;;;;;;;;;10373956;28;20415;-86
2023/09/11 16:48:04;;;;;;;5.93;5.43;;;;;;;;;;10351141;28;20489;-86
2023/09/11 16:53:06;;;;;;;9.27;5.15;;;;;;;;;;10354161;28;20470;-86
2023/09/11 16:58:10;;;;;;;5.70;5.10;;;;;;;;;;10352500;28;20438;-86
2023/09/11 17:03:12;;;;;;;6.18;5.25;;;;;;;;;;10350086;28;20896;-86
2023/09/11 17:08:14;;;;;;;5.20;4.78;;;;;;;;;;10346719;28;20447;-87
2023/09/11 17:13:19;;;;;;;6.55;4.80;;;;;;;;;;10357706;28;20462;-87
2023/09/11 17:18:22;;;;;;;8.30;5.70;;;;;;;;;;10359120;28;20439;-88
2023/09/11 17:23:24;;;;;;;8.40;6.10;;;;;;;;;;10356305;28;20438;-88
2023/09/11 17:28:28;;;;;;;7.37;5.53;;;;;;;;;;10350197;28;20532;-89
2023/09/11 17:33:30;;;;;;;5.65;5.05;;;;;;;;;;10354192;28;20454;-90
2023/09/11 17:38:32;;;;;;;7.60;5.60;;;;;;;;;;10357017;28;20923;-89
2023/09/11 17:43:36;;;;;;;7.43;5.43;;;;;;;;;;10356453;28;20766;-89
2023/09/11 17:48:38;;;;;;;6.50;5.70;;;;;;;;;;10372138;28;20497;-88
2023/09/11 17:53:40;;;;;;;7.85;5.65;;;;;;;;;;10366198;28;20964;-89
2023/09/11 17:58:44;;;;;;;8.38;5.50;;;;;;;;;;10367872;28;21025;-88
2023/09/11 18:03:46;;;;;;;7.20;5.35;;;;;;;;;;10364006;28;20522;-88
2023/09/11 18:08:49;;;;;;;8.50;5.53;;;;;;;;;;10374024;28;20443;-87
2023/09/11 18:13:53;;;;;;;10.30;6.57;;;;;;;;;;10353464;28;20427;-88
2023/09/11 18:18:56;;;;;;;7.97;5.72;;;;;;;;;;10363116;28;20481;-88
2023/09/11 18:23:58;;;;;;;8.10;6.50;;;;;;;;;;10362294;28;20518;-89
2023/09/11 18:29:13;;;;;;;7.30;6.50;;;;;;;;;;10365819;28;20489;-88
2023/09/11 18:34:16;;;;;;;8.55;6.93;;;;;;;;;;10365141;28;20459;-89
2023/09/11 18:39:18;;;;;;;8.27;6.20;;;;;;;;;;10373372;28;20925;-89
2023/09/11 18:44:22;;;;;;;8.00;7.18;;;;;;;;;;10363160;28;20446;-89
2023/09/11 18:49:26;;;;;;;10.13;7.47;;;;;;;;;;10370010;28;20590;-88
2023/09/11 18:54:28;;;;;;;8.73;6.83;;;;;;;;;;10364209;28;20419;-90
2023/09/11 18:59:32;;;;;;;11.57;10.02;;;;;;;;;;10369694;28;20680;-88
2023/09/11 19:04:34;;;;;;;10.43;7.22;;;;;;;;;;10370075;28;20482;-90
2023/09/11 19:09:37;;;;;;;8.50;7.70;;;;;;;;;;10371094;28;20462;-90
2023/09/11 19:14:40;;;;;;;7.03;6.30;;;;;;;;;;10366608;28;20844;-89
2023/09/11 19:19:44;;;;;;;9.77;6.30;;;;;;;;;;10367223;28;20411;-89
2023/09/11 19:24:46;;;;;;;8.20;6.25;;;;;;;;;;10367549;28;20950;-89
2023/09/11 19:29:50;;;;;;;7.10;6.40;;;;;;;;;;10363443;28;20466;-90
2023/09/11 19:34:52;;;;;;;11.10;7.18;;;;;;;;;;10377469;28;20427;-89
2023/09/11 19:39:55;;;;;;;10.63;7.53;;;;;;;;;;10371816;28;20936;-89
2023/09/11 19:44:58;;;;;;;9.38;7.20;;;;;;;;;;10372825;28;20427;-89
2023/09/11 19:50:01;;;;;;;12.60;7.65;;;;;;;;;;10364639;28;20510;-88
2023/09/11 19:55:03;;;;;;;9.33;7.43;;;;;;;;;;10371033;28;20413;-88
2023/09/11 20:00:10;;;;;;;10.10;7.10;;;;;;;;;;10366063;28;20485;-88
2023/09/11 20:05:13;;;;;;;10.65;8.27;;;;;;;;;;10362736;28;20421;-89
2023/09/11 20:10:15;;;;;;;12.45;8.60;;;;;;;;;;10375304;28;20451;-89
2023/09/11 20:15:19;;;;;;;9.15;7.70;;;;;;;;;;10364757;28;20456;-88
2023/09/11 20:20:21;;;;;;;9.88;8.18;;;;;;;;;;10377270;28;20434;-89
2023/09/11 20:25:24;;;;;;;9.63;8.13;;;;;;;;;;10379420;28;20482;-87
2023/09/11 20:30:27;;;;;;;11.82;8.80;;;;;;;;;;10366799;28;20963;-89
2023/09/11 20:35:31;;;;;;;11.90;8.63;;;;;;;;;;10365315;28;20515;-89
2023/09/11 20:40:33;;;;;;;11.75;8.88;;;;;;;;;;10365113;28;20450;-88
2023/09/11 20:45:37;;;;;;;12.45;9.15;;;;;;;;;;10374134;28;20427;-88
2023/09/11 20:50:39;;;;;;;12.05;8.98;;;;;;;;;;10363155;28;20491;-88
2023/09/11 20:55:42;;;;;;;11.50;10.00;;;;;;;;;;10374272;28;20840;-88
2023/09/11 21:00:45;;;;;;;12.20;10.35;;;;;;;;;;10363531;28;20474;-89
2023/09/11 21:05:50;;;;;;;16.27;10.77;;;;;;;;;;10355728;28;20463;-88
2023/09/11 21:10:52;;;;;;;13.32;10.30;;;;;;;;;;10364833;28;20454;-88
2023/09/11 21:15:56;;;;;;;17.33;11.40;;;;;;;;;;10370918;28;20985;-88
2023/09/11 21:20:59;;;;;;;15.18;11.23;;;;;;;;;;10378386;28;20626;-88
2023/09/11 21:26:01;;;;;;;16.45;11.93;;;;;;;;;;10378674;28;20823;-88
2023/09/11 21:31:05;;;;;;;15.43;11.50;;;;;;;;;;10377069;28;20474;-88
2023/09/11 21:36:07;;;;;;;15.50;10.82;;;;;;;;;;10391133;28;20444;-88
2023/09/11 21:41:10;;;;;;;15.10;11.32;;;;;;;;;;10388497;28;20989;-88
2023/09/11 21:46:15;;;;;;;14.88;11.60;;;;;;;;;;10384431;28;20410;-88
2023/09/11 21:51:19;;;;;;;18.35;11.95;;;;;;;;;;10382191;28;20438;-88
2023/09/11 21:56:21;;;;;;;15.63;11.60;;;;;;;;;;10386423;28;20417;-88
2023/09/11 22:01:25;;;;;;;15.77;12.37;;;;;;;;;;10386368;28;20501;-87
2023/09/11 22:06:27;;;;;;;14.65;12.13;;;;;;;;;;10387575;28;20429;-87
2023/09/11 22:11:29;;;;;;;16.13;12.10;;;;;;;;;;10385460;28;20998;-87
2023/09/11 22:16:33;;;;;;;16.25;11.82;;;;;;;;;;10387617;28;20476;-87
2023/09/11 22:21:35;;;;;;;16.65;12.98;;;;;;;;;;10387770;28;20413;-88
2023/09/11 22:26:38;;;;;;;14.97;12.33;;;;;;;;;;10387283;28;20473;-86
2023/09/11 22:31:41;;;;;;;15.15;12.27;;;;;;;;;;10385526;28;20457;-88
2023/09/11 22:36:44;;;;;;;14.53;12.17;;;;;;;;;;10385707;28;20450;-88
2023/09/11 22:41:46;;;;;;;15.83;12.03;;;;;;;;;;10385070;28;20477;-86
2023/09/11 22:46:50;;;;;;;16.88;11.50;;;;;;;;;;10374716;28;20438;-88
2023/09/11 22:51:52;;;;;;;14.00;11.90;;;;;;;;;;10377474;28;20960;-88
2023/09/11 22:56:54;;;;;;;13.90;12.03;;;;;;;;;;10376792;28;20975;-87
2023/09/11 23:01:58;;;;;;;15.23;11.70;;;;;;;;;;10383527;23;20602;-87
2023/09/11 23:07:00;;;;;;;15.77;12.37;;;;;;;;;;10383980;28;20515;-87
2023/09/11 23:12:03;;;;;;;13.93;12.07;;;;;;;;;;10381002;28;20516;-87
2023/09/11 23:17:06;;;;;;;16.13;12.02;;;;;;;;;;10382162;28;20412;-87
2023/09/11 23:22:09;;;;;;;15.60;12.45;;;;;;;;;;10381833;28;20404;-88
2023/09/11 23:27:11;;;;;;;13.95;12.13;;;;;;;;;;10371062;28;20477;-87
2023/09/11 23:32:15;;;;;;;16.13;12.40;;;;;;;;;;10380088;28;20899;-87
2023/09/11 23:37:17;;;;;;;15.75;12.57;;;;;;;;;;10380691;28;20469;-88
2023/09/11 23:42:20;;;;;;;17.27;13.60;;;;;;;;;;10384504;28;20411;-87
2023/09/11 23:47:23;;;;;;;14.70;12.00;;;;;;;;;;10382649;28;20446;-87
2023/09/11 23:52:26;;;;;;;16.57;13.77;;;;;;;;;;10384422;28;21012;-88
2023/09/11 23:57:28;;;;;;;16.88;13.15;;;;;;;;;;10387329;28;20445;-88
